createdAt,value
2019-03-13T00:01:45.024Z,7.20
2019-03-13T00:04:14.344Z,7.20
2019-03-13T00:06:43.576Z,7.30
2019-03-13T00:09:13.101Z,7.30
2019-03-13T00:11:42.417Z,7.30
2019-03-13T00:14:11.726Z,7.30
2019-03-13T00:16:40.939Z,7.30
2019-03-13T00:19:10.246Z,7.30
2019-03-13T00:21:39.546Z,7.40
2019-03-13T00:24:08.797Z,7.40
2019-03-13T00:26:38.024Z,7.40
2019-03-13T00:29:07.245Z,7.40
2019-03-13T00:31:36.556Z,7.50
2019-03-13T00:34:05.769Z,7.50
2019-03-13T00:36:35.053Z,7.60
2019-03-13T00:39:05.779Z,7.60
2019-03-13T00:41:35.060Z,7.70
2019-03-13T00:44:04.286Z,7.70
2019-03-13T00:46:33.526Z,7.70
2019-03-13T00:49:02.760Z,7.80
2019-03-13T00:51:31.984Z,7.80
2019-03-13T00:54:01.299Z,7.80
2019-03-13T00:56:30.589Z,7.80
2019-03-13T00:58:59.832Z,7.80
2019-03-13T01:01:47.466Z,7.80
2019-03-13T01:04:24.237Z,7.80
2019-03-13T01:06:55.101Z,7.90
2019-03-13T01:09:24.320Z,7.90
2019-03-13T01:11:53.550Z,7.90
2019-03-13T01:14:22.804Z,7.90
2019-03-13T01:16:52.119Z,7.90
2019-03-13T01:19:21.366Z,7.90
2019-03-13T01:21:50.596Z,7.80
2019-03-13T01:24:19.887Z,7.90
2019-03-13T01:26:49.148Z,7.90
2019-03-13T01:29:18.402Z,7.90
2019-03-13T01:31:52.016Z,7.90
2019-03-13T01:34:22.882Z,7.90
2019-03-13T01:36:52.123Z,7.90
2019-03-13T01:39:21.372Z,7.90
2019-03-13T01:41:50.615Z,7.90
2019-03-13T01:44:19.938Z,7.90
2019-03-13T01:46:49.195Z,7.90
2019-03-13T01:49:19.338Z,7.90
2019-03-13T01:51:48.589Z,7.90
2019-03-13T01:54:17.854Z,7.90
2019-03-13T01:56:47.062Z,7.90
2019-03-13T01:59:16.331Z,8.00
2019-03-13T02:01:45.645Z,8.00
2019-03-13T02:04:15.440Z,8.00
2019-03-13T02:06:44.805Z,8.10
2019-03-13T02:09:14.131Z,8.10
2019-03-13T02:11:43.357Z,8.10
2019-03-13T02:14:12.603Z,8.20
2019-03-13T02:16:41.843Z,8.20
2019-03-13T02:19:11.072Z,8.30
2019-03-13T02:21:40.302Z,8.20
2019-03-13T02:24:09.553Z,8.10
2019-03-13T02:26:38.824Z,8.00
2019-03-13T02:29:08.031Z,7.70
2019-03-13T02:31:37.256Z,7.30
2019-03-13T02:34:06.502Z,6.90
2019-03-13T02:36:35.813Z,6.60
2019-03-13T02:39:05.877Z,6.50
2019-03-13T02:41:35.166Z,6.40
2019-03-13T02:44:04.576Z,6.30
2019-03-13T02:46:33.883Z,6.30
2019-03-13T02:49:03.124Z,6.30
2019-03-13T02:51:32.634Z,6.30
2019-03-13T02:54:01.884Z,6.30
2019-03-13T02:56:31.131Z,6.20
2019-03-13T02:59:00.342Z,6.00
2019-03-13T03:01:31.260Z,5.70
2019-03-13T03:04:02.138Z,5.50
2019-03-13T03:06:31.463Z,5.40
2019-03-13T03:09:00.692Z,5.20
2019-03-13T03:11:29.939Z,5.10
2019-03-13T03:13:59.188Z,5.00
2019-03-13T03:16:28.610Z,4.90
2019-03-13T03:18:57.858Z,4.80
2019-03-13T03:21:27.182Z,4.70
2019-03-13T03:23:56.422Z,4.60
2019-03-13T03:26:25.694Z,4.40
2019-03-13T03:28:54.934Z,4.40
2019-03-13T03:31:24.324Z,4.30
2019-03-13T03:33:58.714Z,4.30
2019-03-13T03:36:29.069Z,4.30
2019-03-13T03:38:58.374Z,4.30
2019-03-13T03:41:27.596Z,4.30
2019-03-13T03:43:57.396Z,4.40
2019-03-13T03:46:26.626Z,4.40
2019-03-13T03:48:55.925Z,4.40
2019-03-13T03:51:25.184Z,4.30
2019-03-13T03:53:54.550Z,4.30
2019-03-13T03:56:23.785Z,4.30
2019-03-13T03:58:53.061Z,4.20
2019-03-13T04:01:22.333Z,4.10
2019-03-13T04:03:51.571Z,4.10
2019-03-13T04:06:21.031Z,4.00
2019-03-13T04:08:50.284Z,3.90
2019-03-13T04:11:19.609Z,3.90
2019-03-13T04:13:48.850Z,3.80
2019-03-13T04:16:18.161Z,3.80
2019-03-13T04:18:47.390Z,3.80
2019-03-13T04:21:16.750Z,3.70
2019-03-13T04:23:46.047Z,3.70
2019-03-13T04:26:15.545Z,3.70
2019-03-13T04:28:44.797Z,3.70
2019-03-13T04:31:14.099Z,3.60
2019-03-13T04:33:43.326Z,3.60
2019-03-13T04:36:12.646Z,3.60
2019-03-13T04:38:41.881Z,3.60
2019-03-13T04:41:11.177Z,3.60
2019-03-13T04:43:40.403Z,3.60
2019-03-13T04:46:09.629Z,3.60
2019-03-13T04:48:38.841Z,3.60
2019-03-13T04:51:08.091Z,3.10
2019-03-13T04:53:37.381Z,3.60
2019-03-13T04:56:06.597Z,3.60
2019-03-13T04:58:35.844Z,3.60
2019-03-13T05:01:05.088Z,3.70
2019-03-13T05:03:34.391Z,3.80
2019-03-13T05:06:04.671Z,3.80
2019-03-13T05:08:44.977Z,3.80
2019-03-13T05:11:10.543Z,3.90
2019-03-13T05:13:39.776Z,3.90
2019-03-13T05:16:09.090Z,3.80
2019-03-13T05:18:38.341Z,3.90
2019-03-13T05:21:07.573Z,3.90
2019-03-13T05:23:36.850Z,4.00
2019-03-13T05:26:06.140Z,4.00
2019-03-13T05:28:35.420Z,3.90
2019-03-13T05:31:04.726Z,3.90
2019-03-13T05:33:33.962Z,3.90
2019-03-13T05:36:03.275Z,3.90
2019-03-13T05:38:32.523Z,3.90
2019-03-13T05:41:01.816Z,3.90
2019-03-13T05:43:32.998Z,4.00
2019-03-13T05:46:02.028Z,4.00
2019-03-13T05:48:31.249Z,4.10
2019-03-13T05:51:00.479Z,4.10
2019-03-13T05:53:29.692Z,4.00
2019-03-13T05:55:58.947Z,3.90
2019-03-13T05:58:28.176Z,4.00
2019-03-13T06:00:57.407Z,4.00
2019-03-13T06:03:26.642Z,4.00
2019-03-13T06:05:55.906Z,4.00
2019-03-13T06:08:25.146Z,4.00
2019-03-13T06:10:54.384Z,4.10
2019-03-13T06:13:23.647Z,4.10
2019-03-13T06:15:52.934Z,4.10
2019-03-13T06:18:22.204Z,4.10
2019-03-13T06:20:51.500Z,4.10
2019-03-13T06:23:20.761Z,4.10
2019-03-13T06:25:50.086Z,4.10
2019-03-13T06:28:19.429Z,4.20
2019-03-13T06:30:48.692Z,4.20
2019-03-13T06:33:17.917Z,4.20
2019-03-13T06:35:47.135Z,4.30
2019-03-13T06:38:17.174Z,4.40
2019-03-13T06:40:46.414Z,4.40
2019-03-13T06:43:15.664Z,4.40
2019-03-13T06:45:44.898Z,4.40
2019-03-13T06:48:14.164Z,4.40
2019-03-13T06:50:45.122Z,4.40
2019-03-13T06:53:14.349Z,4.40
2019-03-13T06:55:44.144Z,4.40
2019-03-13T06:58:14.044Z,4.50
2019-03-13T07:01:00.207Z,4.50
2019-03-13T07:03:47.384Z,4.50
2019-03-13T07:06:33.400Z,4.60
2019-03-13T07:09:04.282Z,4.70
2019-03-13T07:11:38.182Z,4.80
2019-03-13T07:14:09.040Z,4.80
2019-03-13T07:16:42.649Z,4.90
2019-03-13T07:19:16.444Z,4.90
2019-03-13T07:21:59.599Z,4.90
2019-03-13T07:24:46.928Z,5.00
2019-03-13T07:27:34.070Z,5.10
2019-03-13T07:30:08.836Z,5.10
2019-03-13T07:32:42.468Z,5.20
2019-03-13T07:35:25.436Z,5.20
2019-03-13T07:37:59.130Z,5.30
2019-03-13T07:40:32.707Z,5.30
2019-03-13T07:43:22.177Z,5.30
2019-03-13T07:46:01.958Z,5.40
2019-03-13T07:48:35.436Z,5.40
2019-03-13T07:51:09.430Z,5.50
2019-03-13T07:53:40.303Z,5.50
2019-03-13T07:56:14.162Z,5.50
2019-03-13T07:58:45.059Z,5.60
2019-03-13T08:01:18.924Z,5.70
2019-03-13T08:04:01.532Z,5.80
2019-03-13T08:06:44.021Z,5.90
2019-03-13T08:09:20.803Z,6.00
2019-03-13T08:11:51.673Z,6.10
2019-03-13T08:14:38.920Z,6.20
2019-03-13T08:17:15.685Z,6.20
2019-03-13T08:19:46.579Z,6.20
2019-03-13T08:22:23.324Z,6.20
2019-03-13T08:25:10.535Z,6.20
2019-03-13T08:27:50.515Z,6.20
2019-03-13T08:30:21.442Z,6.20
2019-03-13T08:32:57.835Z,6.30
2019-03-13T08:35:45.045Z,6.20
2019-03-13T08:38:18.909Z,6.20
2019-03-13T08:41:08.177Z,6.20
2019-03-13T08:43:47.955Z,6.30
2019-03-13T08:46:18.833Z,6.30
2019-03-13T08:48:55.521Z,6.30
2019-03-13T08:51:35.167Z,6.40
2019-03-13T08:54:15.175Z,6.40
2019-03-13T08:56:49.182Z,6.50
2019-03-13T08:59:23.349Z,6.70
2019-03-13T09:01:58.757Z,6.90
2019-03-13T09:04:35.834Z,7.00
2019-03-13T09:07:13.005Z,7.10
2019-03-13T09:09:43.875Z,7.10
2019-03-13T09:12:14.739Z,7.20
2019-03-13T09:15:02.105Z,7.20
2019-03-13T09:17:32.982Z,7.30
2019-03-13T09:20:16.049Z,7.30
2019-03-13T09:22:52.575Z,7.40
2019-03-13T09:25:23.438Z,7.40
2019-03-13T09:28:10.929Z,7.30
2019-03-13T09:30:58.171Z,7.40
2019-03-13T09:33:29.040Z,7.40
2019-03-13T09:35:59.930Z,7.60
2019-03-13T09:38:43.292Z,7.70
2019-03-13T09:41:14.169Z,7.70
2019-03-13T09:43:45.037Z,7.80
2019-03-13T09:46:15.939Z,7.80
2019-03-13T09:48:55.814Z,7.80
2019-03-13T09:51:29.493Z,7.70
2019-03-13T09:54:16.469Z,7.70
2019-03-13T09:57:03.955Z,7.70
2019-03-13T09:59:43.265Z,7.70
2019-03-13T10:02:10.411Z,7.70
2019-03-13T10:04:47.557Z,7.70
2019-03-13T10:07:27.480Z,7.70
2019-03-13T10:10:13.219Z,7.90
2019-03-13T10:12:44.075Z,7.90
2019-03-13T10:15:17.698Z,8.00
2019-03-13T10:17:57.889Z,8.10
2019-03-13T10:20:45.086Z,8.10
2019-03-13T10:23:24.739Z,8.00
2019-03-13T10:25:55.679Z,7.90
2019-03-13T10:28:42.923Z,7.80
2019-03-13T10:31:28.570Z,7.80
2019-03-13T10:34:08.567Z,8.00
2019-03-13T10:36:55.653Z,8.10
2019-03-13T10:39:44.417Z,8.10
2019-03-13T10:42:18.147Z,8.10
2019-03-13T10:44:49.037Z,7.90
2019-03-13T10:47:31.726Z,7.80
2019-03-13T10:50:02.598Z,7.80
2019-03-13T10:52:50.074Z,7.70
2019-03-13T10:55:29.830Z,7.70
2019-03-13T10:58:03.666Z,7.60
2019-03-13T11:00:37.516Z,7.70
2019-03-13T11:03:14.534Z,7.80
2019-03-13T11:05:48.340Z,8.00
2019-03-13T11:08:19.576Z,8.20
2019-03-13T11:10:50.472Z,8.40
2019-03-13T11:13:21.397Z,8.50
2019-03-13T11:15:52.266Z,8.50
2019-03-13T11:18:37.962Z,8.50
2019-03-13T11:21:21.196Z,8.40
2019-03-13T11:27:04.100Z,8.30
2019-03-13T11:29:41.014Z,8.20
2019-03-13T11:32:23.924Z,8.20
2019-03-13T11:35:11.344Z,8.10
2019-03-13T11:37:58.050Z,8.10
2019-03-13T11:40:34.895Z,8.20
2019-03-13T11:43:22.425Z,8.30
2019-03-13T11:46:08.316Z,8.50
2019-03-13T11:48:54.266Z,8.60
2019-03-13T11:51:25.136Z,8.70
2019-03-13T11:54:14.362Z,8.80
2019-03-13T11:56:50.981Z,8.80
2019-03-13T11:59:30.605Z,8.70
2019-03-13T12:02:04.222Z,8.70
2019-03-13T12:04:38.028Z,8.50
2019-03-13T12:07:26.788Z,8.40
2019-03-13T12:10:12.821Z,8.40
2019-03-13T12:12:53.224Z,8.30
2019-03-13T12:15:27.026Z,8.20
2019-03-13T12:17:58.750Z,8.10
2019-03-13T12:20:32.182Z,8.10
2019-03-13T12:23:06.054Z,8.00
2019-03-13T12:25:39.892Z,8.10
2019-03-13T12:28:21.054Z,8.20
2019-03-13T12:30:54.630Z,8.20
2019-03-13T12:33:28.050Z,8.20
2019-03-13T12:36:01.861Z,8.30
2019-03-13T12:38:32.820Z,8.30
2019-03-13T12:41:22.147Z,8.20
2019-03-13T12:44:11.035Z,8.20
2019-03-13T12:46:53.909Z,8.30
2019-03-13T12:49:33.789Z,8.40
2019-03-13T12:52:04.673Z,8.50
2019-03-13T12:54:51.852Z,8.70
2019-03-13T12:57:25.682Z,8.80
2019-03-13T13:00:13.443Z,8.90
2019-03-13T13:02:44.326Z,9.00
2019-03-13T13:05:31.831Z,9.00
2019-03-13T13:08:19.153Z,9.00
2019-03-13T13:11:02.081Z,9.00
2019-03-13T13:13:44.958Z,9.00
2019-03-13T13:16:18.836Z,9.10
2019-03-13T13:18:54.292Z,9.20
2019-03-13T13:21:23.805Z,9.10
2019-03-13T13:23:53.109Z,9.10
2019-03-13T13:26:22.909Z,9.10
2019-03-13T13:28:52.157Z,9.10
2019-03-13T13:31:21.449Z,9.00
2019-03-13T13:33:50.678Z,8.80
2019-03-13T13:36:19.907Z,8.70
2019-03-13T13:38:49.140Z,8.60
2019-03-13T13:41:18.385Z,8.50
2019-03-13T13:43:47.632Z,8.40
2019-03-13T13:46:22.755Z,8.40
2019-03-13T13:48:52.003Z,8.30
2019-03-13T13:51:21.235Z,8.20
2019-03-13T13:53:50.626Z,8.20
2019-03-13T13:56:19.885Z,8.20
2019-03-13T13:58:49.140Z,8.20
2019-03-13T14:01:18.451Z,8.20
2019-03-13T14:03:47.694Z,8.30
2019-03-13T14:06:16.929Z,8.30
2019-03-13T14:08:46.270Z,8.40
2019-03-13T14:11:15.523Z,8.50
2019-03-13T14:13:44.743Z,8.40
2019-03-13T14:16:13.975Z,8.30
2019-03-13T14:18:43.216Z,8.20
2019-03-13T14:21:12.635Z,8.20
2019-03-13T14:23:43.143Z,8.10
2019-03-13T14:26:12.364Z,8.20
2019-03-13T14:28:41.611Z,8.10
2019-03-13T14:31:10.827Z,8.10
2019-03-13T14:33:40.071Z,8.20
2019-03-13T14:36:09.381Z,8.20
2019-03-13T14:38:38.604Z,8.30
2019-03-13T14:41:07.829Z,8.40
2019-03-13T14:43:37.075Z,8.40
2019-03-13T14:46:06.294Z,8.50
2019-03-13T14:48:35.541Z,8.70
2019-03-13T14:51:04.840Z,8.90
2019-03-13T14:53:34.054Z,9.10
2019-03-13T14:56:03.332Z,9.20
2019-03-13T14:58:32.652Z,9.30
2019-03-13T15:01:01.900Z,9.40
2019-03-13T15:03:31.218Z,9.30
2019-03-13T15:06:00.521Z,9.10
2019-03-13T15:08:29.767Z,8.90
2019-03-13T15:10:59.082Z,8.70
2019-03-13T15:13:28.423Z,8.60
2019-03-13T15:15:57.736Z,8.50
2019-03-13T15:18:26.991Z,8.40
2019-03-13T15:20:56.223Z,8.30
2019-03-13T15:23:25.482Z,8.30
2019-03-13T15:25:54.721Z,8.20
2019-03-13T15:28:23.976Z,8.20
2019-03-13T15:30:53.274Z,8.10
2019-03-13T15:33:22.519Z,8.10
2019-03-13T15:35:51.761Z,8.10
2019-03-13T15:38:20.990Z,8.00
2019-03-13T15:40:50.457Z,8.00
2019-03-13T15:43:19.772Z,8.10
2019-03-13T15:45:48.997Z,8.10
2019-03-13T15:48:18.732Z,8.20
2019-03-13T15:50:47.982Z,8.20
2019-03-13T15:53:17.257Z,8.30
2019-03-13T15:55:46.582Z,8.50
2019-03-13T15:58:15.862Z,8.60
2019-03-13T16:00:46.877Z,8.70
2019-03-13T16:03:16.126Z,8.70
2019-03-13T16:05:45.383Z,8.80
2019-03-13T16:08:16.312Z,8.80
2019-03-13T16:10:45.580Z,8.70
2019-03-13T16:13:14.810Z,8.60
2019-03-13T16:15:46.130Z,8.50
2019-03-13T16:18:15.768Z,8.40
2019-03-13T16:20:45.038Z,8.20
2019-03-13T16:23:17.137Z,8.20
2019-03-13T16:25:45.301Z,8.20
2019-03-13T16:28:14.730Z,8.20
2019-03-13T16:30:48.367Z,8.30
2019-03-13T16:33:17.618Z,8.40
2019-03-13T16:35:46.925Z,8.40
2019-03-13T16:38:16.943Z,8.40
2019-03-13T16:40:46.196Z,8.40
2019-03-13T16:43:15.509Z,8.30
2019-03-13T16:45:44.793Z,8.30
2019-03-13T16:48:15.688Z,8.20
2019-03-13T16:50:44.975Z,8.10
2019-03-13T16:53:14.290Z,8.00
2019-03-13T16:55:43.516Z,7.90
2019-03-13T16:58:12.770Z,7.80
2019-03-13T17:00:41.993Z,7.70
2019-03-13T17:03:11.240Z,7.70
2019-03-13T17:05:40.599Z,7.60
2019-03-13T17:08:09.902Z,7.50
2019-03-13T17:10:39.179Z,7.50
2019-03-13T17:13:08.560Z,7.40
2019-03-13T17:15:37.835Z,7.40
2019-03-13T17:18:07.251Z,7.30
2019-03-13T17:20:38.768Z,7.30
2019-03-13T17:23:08.041Z,7.20
2019-03-13T17:25:37.281Z,7.10
2019-03-13T17:28:10.065Z,7.10
2019-03-13T17:30:39.364Z,7.00
2019-03-13T17:33:08.585Z,7.00
2019-03-13T17:35:37.816Z,7.00
2019-03-13T17:38:07.130Z,7.00
2019-03-13T17:40:36.337Z,7.00
2019-03-13T17:43:05.650Z,7.00
2019-03-13T17:45:34.884Z,6.90
2019-03-13T17:48:04.466Z,6.90
2019-03-13T17:50:33.735Z,6.80
2019-03-13T17:53:02.977Z,6.70
2019-03-13T17:55:32.219Z,6.70
2019-03-13T17:58:01.450Z,6.60
2019-03-13T18:00:44.490Z,6.60
2019-03-13T18:03:13.838Z,6.60
2019-03-13T18:05:43.248Z,6.60
2019-03-13T18:08:12.612Z,6.60
2019-03-13T18:10:41.931Z,6.60
2019-03-13T18:13:11.283Z,6.60
2019-03-13T18:15:40.653Z,6.60
2019-03-13T18:18:10.823Z,6.60
2019-03-13T18:20:40.155Z,6.60
2019-03-13T18:23:09.470Z,6.60
2019-03-13T18:25:38.742Z,6.60
2019-03-13T18:28:09.605Z,6.50
2019-03-13T18:30:38.935Z,6.50
2019-03-13T18:33:08.204Z,6.50
2019-03-13T18:35:37.433Z,6.50
2019-03-13T18:38:07.425Z,6.50
2019-03-13T18:40:36.669Z,6.50
2019-03-13T18:43:06.163Z,6.40
2019-03-13T18:45:36.443Z,6.40
2019-03-13T18:48:06.243Z,6.40
2019-03-13T18:50:35.623Z,6.40
2019-03-13T18:53:04.995Z,6.40
2019-03-13T18:55:35.788Z,6.40
2019-03-13T18:58:08.407Z,6.40
2019-03-13T19:00:38.201Z,6.30
2019-03-13T19:03:08.591Z,6.30
2019-03-13T19:05:38.676Z,6.30
2019-03-13T19:08:08.293Z,6.30
2019-03-13T19:10:37.825Z,6.30
2019-03-13T19:13:07.168Z,6.30
2019-03-13T19:15:39.814Z,6.30
2019-03-13T19:18:07.566Z,6.30
2019-03-13T19:20:36.807Z,6.30
2019-03-13T19:23:06.149Z,6.30
2019-03-13T19:25:35.477Z,6.20
2019-03-13T19:28:04.834Z,6.20
2019-03-13T19:30:37.585Z,6.20
2019-03-13T19:33:06.120Z,6.20
2019-03-13T19:35:35.380Z,6.20
2019-03-13T19:38:19.852Z,6.10
2019-03-13T19:40:49.073Z,6.10
2019-03-13T19:43:18.325Z,6.10
2019-03-13T19:45:48.510Z,6.10
2019-03-13T19:48:18.216Z,6.00
2019-03-13T19:50:47.471Z,6.00
2019-03-13T19:53:16.900Z,5.90
2019-03-13T19:55:46.134Z,5.90
2019-03-13T19:58:15.537Z,5.90
2019-03-13T20:00:44.917Z,5.90
2019-03-13T20:03:16.150Z,5.90
2019-03-13T20:05:46.605Z,5.90
2019-03-13T20:08:16.107Z,5.90
2019-03-13T20:10:45.362Z,5.90
2019-03-13T20:13:14.676Z,5.90
2019-03-13T20:15:43.925Z,5.90
2019-03-13T20:18:13.186Z,5.90
2019-03-13T20:20:42.442Z,5.90
2019-03-13T20:23:15.790Z,5.90
2019-03-13T20:25:45.156Z,5.90
2019-03-13T20:28:14.565Z,5.90
2019-03-13T20:30:43.977Z,5.90
2019-03-13T20:33:13.267Z,5.90
2019-03-13T20:35:42.517Z,5.80
2019-03-13T20:38:12.636Z,5.80
2019-03-13T20:40:41.888Z,5.80
2019-03-13T20:43:11.520Z,5.90
2019-03-13T20:45:41.118Z,5.80
2019-03-13T20:48:10.411Z,5.90
2019-03-13T20:50:39.720Z,5.90
2019-03-13T20:53:08.968Z,5.80
2019-03-13T20:55:38.237Z,5.80
2019-03-13T20:58:07.501Z,5.80
2019-03-13T21:00:36.879Z,5.80
2019-03-13T21:03:06.191Z,5.80
2019-03-13T21:05:35.438Z,5.70
2019-03-13T21:08:05.655Z,5.70
2019-03-13T21:10:34.906Z,5.70
2019-03-13T21:13:04.397Z,5.70
2019-03-13T21:15:33.648Z,5.70
2019-03-13T21:18:02.916Z,5.70
2019-03-13T21:20:32.281Z,5.70
2019-03-13T21:23:01.649Z,5.70
2019-03-13T21:25:30.873Z,5.60
2019-03-13T21:28:00.105Z,5.60
2019-03-13T21:30:29.808Z,5.60
2019-03-13T21:32:59.220Z,5.60
2019-03-13T21:35:28.544Z,5.50
2019-03-13T21:37:57.850Z,5.50
2019-03-13T21:40:27.843Z,5.50
2019-03-13T21:42:57.396Z,5.40
2019-03-13T21:45:40.123Z,5.40
2019-03-13T21:47:58.686Z,5.40
2019-03-13T21:50:27.918Z,5.40
2019-03-13T21:55:19.530Z,5.30
2019-03-13T21:57:51.662Z,5.30
2019-03-13T22:00:24.807Z,5.30
2019-03-13T22:03:13.434Z,5.30
2019-03-13T22:05:42.657Z,5.20
2019-03-13T22:08:23.792Z,5.20
2019-03-13T22:10:53.028Z,5.20
2019-03-13T22:13:22.316Z,5.20
2019-03-13T22:15:51.565Z,5.20
2019-03-13T22:18:22.260Z,5.20
2019-03-13T22:20:51.555Z,5.20
2019-03-13T22:23:20.798Z,5.20
2019-03-13T22:25:50.046Z,5.20
2019-03-13T22:28:20.136Z,5.20
2019-03-13T22:30:49.459Z,5.20
2019-03-13T22:33:18.706Z,5.20
2019-03-13T22:35:47.941Z,5.20
2019-03-13T22:38:17.160Z,5.20
2019-03-13T22:40:46.411Z,5.20
2019-03-13T22:43:15.652Z,5.10
2019-03-13T22:45:44.897Z,5.10
2019-03-13T22:48:14.426Z,5.10
2019-03-13T22:50:43.669Z,5.10
2019-03-13T22:53:12.990Z,5.00
2019-03-13T22:55:42.253Z,5.00
2019-03-13T22:58:11.647Z,5.00
2019-03-13T23:00:52.158Z,5.00
2019-03-13T23:03:23.226Z,5.00
2019-03-13T23:05:52.689Z,5.00
2019-03-13T23:08:22.064Z,5.00
2019-03-13T23:10:51.530Z,5.10
2019-03-13T23:13:20.839Z,5.10
2019-03-13T23:15:50.091Z,5.10
2019-03-13T23:18:20.651Z,5.10
2019-03-13T23:20:50.025Z,5.00
2019-03-13T23:23:19.263Z,5.10
2019-03-13T23:25:48.513Z,5.10
2019-03-13T23:28:17.985Z,5.10
2019-03-13T23:30:47.294Z,5.20
2019-03-13T23:33:16.533Z,5.20
2019-03-13T23:35:45.766Z,5.20
2019-03-13T23:38:15.588Z,5.20
2019-03-13T23:40:44.839Z,5.20
2019-03-13T23:43:14.130Z,5.20
2019-03-13T23:45:43.362Z,5.20
2019-03-13T23:48:24.989Z,5.20
2019-03-13T23:50:54.338Z,5.20
2019-03-13T23:53:23.579Z,5.20
2019-03-13T23:55:52.881Z,5.20
2019-03-13T23:58:22.890Z,5.20
